sensor_id;sensor_type;location;lat;lon;timestamp;pressure;altitude;pressure_sealevel;temperature;humidity
6565;BME280;3316;44.118;27.258;2023-05-12T00:00:21;101725.66;;;9.08;100.00
6565;BME280;3316;44.118;27.258;2023-05-12T00:02:46;101775.81;;;9.26;100.00
6565;BME280;3316;44.118;27.258;2023-05-12T00:05:12;101767.84;;;9.21;100.00
6565;BME280;3316;44.118;27.258;2023-05-12T00:07:37;101763.41;;;9.14;100.00
6565;BME280;3316;44.118;27.258;2023-05-12T00:10:03;101771.28;;;9.16;100.00
6565;BME280;3316;44.118;27.258;2023-05-12T00:12:29;101769.50;;;9.13;100.00
6565;BME280;3316;44.118;27.258;2023-05-12T00:14:55;101766.78;;;9.07;100.00
6565;BME280;3316;44.118;27.258;2023-05-12T00:17:20;101764.16;;;9.06;100.00
6565;BME280;3316;44.118;27.258;2023-05-12T00:19:46;101748.13;;;8.86;100.00
6565;BME280;3316;44.118;27.258;2023-05-12T00:22:13;101763.06;;;8.91;100.00
6565;BME280;3316;44.118;27.258;2023-05-12T00:24:39;101762.22;;;8.91;100.00
6565;BME280;3316;44.118;27.258;2023-05-12T00:27:05;101750.75;;;8.86;100.00
6565;BME280;3316;44.118;27.258;2023-05-12T00:29:32;101765.75;;;8.96;100.00
6565;BME280;3316;44.118;27.258;2023-05-12T00:31:58;101762.34;;;9.03;100.00
6565;BME280;3316;44.118;27.258;2023-05-12T00:34:23;101755.06;;;8.82;100.00
6565;BME280;3316;44.118;27.258;2023-05-12T00:36:49;101763.84;;;8.84;100.00
6565;BME280;3316;44.118;27.258;2023-05-12T00:39:14;101760.44;;;8.90;100.00
6565;BME280;3316;44.118;27.258;2023-05-12T00:41:39;101762.94;;;8.82;100.00
6565;BME280;3316;44.118;27.258;2023-05-12T00:44:05;101751.38;;;8.70;100.00
6565;BME280;3316;44.118;27.258;2023-05-12T00:46:30;101738.13;;;8.61;100.00
6565;BME280;3316;44.118;27.258;2023-05-12T00:48:57;101744.34;;;8.66;100.00
6565;BME280;3316;44.118;27.258;2023-05-12T00:51:24;101756.63;;;8.70;100.00
6565;BME280;3316;44.118;27.258;2023-05-12T00:53:50;101759.25;;;8.70;100.00
6565;BME280;3316;44.118;27.258;2023-05-12T00:56:18;101762.88;;;8.78;100.00
6565;BME280;3316;44.118;27.258;2023-05-12T00:58:44;101701.31;;;8.55;100.00
6565;BME280;3316;44.118;27.258;2023-05-12T01:01:09;101719.88;;;8.70;100.00
6565;BME280;3316;44.118;27.258;2023-05-12T01:03:35;101692.50;;;8.50;100.00
6565;BME280;3316;44.118;27.258;2023-05-12T01:06:25;101764.78;;;8.89;100.00
6565;BME280;3316;44.118;27.258;2023-05-12T01:08:54;101740.97;;;8.76;100.00
6565;BME280;3316;44.118;27.258;2023-05-12T01:11:20;101760.56;;;8.99;100.00
6565;BME280;3316;44.118;27.258;2023-05-12T01:13:46;101757.78;;;8.87;100.00
6565;BME280;3316;44.118;27.258;2023-05-12T01:16:14;101758.69;;;8.89;100.00
6565;BME280;3316;44.118;27.258;2023-05-12T01:18:42;101763.88;;;8.86;100.00
6565;BME280;3316;44.118;27.258;2023-05-12T01:21:14;101766.25;;;8.69;100.00
6565;BME280;3316;44.118;27.258;2023-05-12T01:23:43;101761.81;;;8.65;100.00
6565;BME280;3316;44.118;27.258;2023-05-12T01:26:10;101755.56;;;8.57;100.00
6565;BME280;3316;44.118;27.258;2023-05-12T01:28:37;101755.66;;;8.63;100.00
6565;BME280;3316;44.118;27.258;2023-05-12T01:31:06;101774.03;;;8.65;100.00
6565;BME280;3316;44.118;27.258;2023-05-12T01:33:33;101762.56;;;8.58;100.00
6565;BME280;3316;44.118;27.258;2023-05-12T01:35:58;101767.94;;;8.66;100.00
6565;BME280;3316;44.118;27.258;2023-05-12T01:38:25;101770.72;;;8.75;100.00
6565;BME280;3316;44.118;27.258;2023-05-12T01:40:50;101774.25;;;8.80;100.00
6565;BME280;3316;44.118;27.258;2023-05-12T01:43:16;101770.75;;;8.78;100.00
6565;BME280;3316;44.118;27.258;2023-05-12T01:45:42;101763.63;;;8.69;100.00
6565;BME280;3316;44.118;27.258;2023-05-12T01:48:07;101768.13;;;8.78;100.00
6565;BME280;3316;44.118;27.258;2023-05-12T01:50:32;101775.88;;;8.72;100.00
6565;BME280;3316;44.118;27.258;2023-05-12T01:52:58;101770.63;;;8.72;100.00
6565;BME280;3316;44.118;27.258;2023-05-12T01:55:23;101754.84;;;8.67;100.00
6565;BME280;3316;44.118;27.258;2023-05-12T01:57:49;101764.47;;;8.68;100.00
6565;BME280;3316;44.118;27.258;2023-05-12T02:00:14;101760.13;;;8.70;100.00
6565;BME280;3316;44.118;27.258;2023-05-12T02:02:40;101760.13;;;8.69;100.00
6565;BME280;3316;44.118;27.258;2023-05-12T02:05:07;101757.47;;;8.66;100.00
6565;BME280;3316;44.118;27.258;2023-05-12T02:07:33;101753.06;;;8.65;100.00
6565;BME280;3316;44.118;27.258;2023-05-12T02:09:58;101753.03;;;8.63;100.00
6565;BME280;3316;44.118;27.258;2023-05-12T02:12:24;101750.31;;;8.57;100.00
6565;BME280;3316;44.118;27.258;2023-05-12T02:14:49;101757.31;;;8.58;100.00
6565;BME280;3316;44.118;27.258;2023-05-12T02:17:15;101744.25;;;8.60;100.00
6565;BME280;3316;44.118;27.258;2023-05-12T02:19:41;101755.69;;;8.65;100.00
6565;BME280;3316;44.118;27.258;2023-05-12T02:22:07;101750.31;;;8.57;100.00
6565;BME280;3316;44.118;27.258;2023-05-12T02:24:32;101761.72;;;8.61;100.00
6565;BME280;3316;44.118;27.258;2023-05-12T02:26:58;101750.53;;;8.71;100.00
6565;BME280;3316;44.118;27.258;2023-05-12T02:29:23;101759.41;;;8.79;100.00
6565;BME280;3316;44.118;27.258;2023-05-12T02:31:48;101744.38;;;8.69;100.00
6565;BME280;3316;44.118;27.258;2023-05-12T02:34:14;101751.31;;;8.65;100.00
6565;BME280;3316;44.118;27.258;2023-05-12T02:36:39;101750.56;;;8.74;100.00
6565;BME280;3316;44.118;27.258;2023-05-12T02:39:05;101750.59;;;8.75;100.00
6565;BME280;3316;44.118;27.258;2023-05-12T02:41:30;101752.34;;;8.75;100.00
6565;BME280;3316;44.118;27.258;2023-05-12T02:43:56;101755.69;;;8.65;100.00
6565;BME280;3316;44.118;27.258;2023-05-12T02:46:21;101760.78;;;8.56;100.00
6565;BME280;3316;44.118;27.258;2023-05-12T02:48:47;101737.78;;;8.40;100.00
6565;BME280;3316;44.118;27.258;2023-05-12T02:51:12;101738.88;;;8.52;100.00
6565;BME280;3316;44.118;27.258;2023-05-12T02:53:38;101750.31;;;8.56;100.00
6565;BME280;3316;44.118;27.258;2023-05-12T02:56:03;101759.31;;;8.73;100.00
6565;BME280;3316;44.118;27.258;2023-05-12T02:58:29;101752.16;;;8.63;100.00
6565;BME280;3316;44.118;27.258;2023-05-12T03:00:54;101748.72;;;8.68;100.00
6565;BME280;3316;44.118;27.258;2023-05-12T03:03:20;101753.97;;;8.68;100.00
6565;BME280;3316;44.118;27.258;2023-05-12T03:05:45;101758.38;;;8.68;100.00
6565;BME280;3316;44.118;27.258;2023-05-12T03:08:11;101764.75;;;8.86;100.00
6565;BME280;3316;44.118;27.258;2023-05-12T03:10:37;101766.63;;;8.95;100.00
6565;BME280;3316;44.118;27.258;2023-05-12T03:13:02;101777.25;;;9.04;100.00
6565;BME280;3316;44.118;27.258;2023-05-12T03:15:28;101777.38;;;9.12;100.00
6565;BME280;3316;44.118;27.258;2023-05-12T03:17:53;101776.72;;;9.28;100.00
6565;BME280;3316;44.118;27.258;2023-05-12T03:20:19;101770.63;;;9.30;100.00
6565;BME280;3316;44.118;27.258;2023-05-12T03:22:44;101791.16;;;9.61;100.00
6565;BME280;3316;44.118;27.258;2023-05-12T03:25:10;101782.38;;;9.61;100.00
6565;BME280;3316;44.118;27.258;2023-05-12T03:27:36;101793.13;;;9.79;100.00
6565;BME280;3316;44.118;27.258;2023-05-12T03:30:02;101807.31;;;9.95;100.00
6565;BME280;3316;44.118;27.258;2023-05-12T03:32:29;101781.84;;;9.91;100.00
6565;BME280;3316;44.118;27.258;2023-05-12T03:34:55;101804.69;;;9.96;100.00
6565;BME280;3316;44.118;27.258;2023-05-12T03:37:20;101799.31;;;9.85;100.00
6565;BME280;3316;44.118;27.258;2023-05-12T03:39:46;101803.66;;;9.85;100.00
6565;BME280;3316;44.118;27.258;2023-05-12T03:42:12;101792.31;;;9.87;100.00
6565;BME280;3316;44.118;27.258;2023-05-12T03:44:38;101791.50;;;9.92;100.00
6565;BME280;3316;44.118;27.258;2023-05-12T03:47:03;101790.78;;;10.06;100.00
6565;BME280;3316;44.118;27.258;2023-05-12T03:49:29;101797.91;;;10.16;100.00
6565;BME280;3316;44.118;27.258;2023-05-12T03:51:55;101791.81;;;10.19;100.00
6565;BME280;3316;44.118;27.258;2023-05-12T03:54:20;101792.75;;;10.28;100.00
6565;BME280;3316;44.118;27.258;2023-05-12T03:56:46;101808.66;;;10.37;100.00
6565;BME280;3316;44.118;27.258;2023-05-12T03:59:11;101737.31;;;10.07;100.00
6565;BME280;3316;44.118;27.258;2023-05-12T04:01:37;101797.31;;;10.46;100.00
6565;BME280;3316;44.118;27.258;2023-05-12T04:04:02;101805.25;;;10.49;100.00
6565;BME280;3316;44.118;27.258;2023-05-12T04:06:28;101807.03;;;10.53;100.00
6565;BME280;3316;44.118;27.258;2023-05-12T04:08:53;101799.16;;;10.53;100.00
6565;BME280;3316;44.118;27.258;2023-05-12T04:11:19;101802.69;;;10.58;100.00
6565;BME280;3316;44.118;27.258;2023-05-12T04:13:44;101772.78;;;10.45;100.00
6565;BME280;3316;44.118;27.258;2023-05-12T04:16:10;101812.44;;;10.71;100.00
6565;BME280;3316;44.118;27.258;2023-05-12T04:18:35;101801.03;;;10.72;100.00
6565;BME280;3316;44.118;27.258;2023-05-12T04:21:01;101804.69;;;10.89;100.00
6565;BME280;3316;44.118;27.258;2023-05-12T04:23:27;101791.50;;;10.89;100.00
6565;BME280;3316;44.118;27.258;2023-05-12T04:25:53;101801.19;;;10.95;100.00
6565;BME280;3316;44.118;27.258;2023-05-12T04:28:18;101797.72;;;10.97;100.00
6565;BME280;3316;44.118;27.258;2023-05-12T04:30:44;101797.72;;;10.96;100.00
6565;BME280;3316;44.118;27.258;2023-05-12T04:33:10;101797.72;;;10.94;100.00
6565;BME280;3316;44.118;27.258;2023-05-12T04:35:35;101788.00;;;10.89;100.00
6565;BME280;3316;44.118;27.258;2023-05-12T04:38:01;101780.09;;;10.84;100.00
6565;BME280;3316;44.118;27.258;2023-05-12T04:40:27;101782.72;;;10.89;100.00
6565;BME280;3316;44.118;27.258;2023-05-12T04:42:53;101788.94;;;10.98;100.00
6565;BME280;3316;44.118;27.258;2023-05-12T04:45:18;101779.34;;;11.09;100.00
6565;BME280;3316;44.118;27.258;2023-05-12T04:47:44;101786.44;;;11.19;100.00
6565;BME280;3316;44.118;27.258;2023-05-12T04:50:09;101787.41;;;11.38;100.00
6565;BME280;3316;44.118;27.258;2023-05-12T04:52:35;101792.72;;;11.41;100.00
6565;BME280;3316;44.118;27.258;2023-05-12T04:55:01;101795.41;;;11.54;100.00
6565;BME280;3316;44.118;27.258;2023-05-12T04:57:26;101804.19;;;11.56;100.00
6565;BME280;3316;44.118;27.258;2023-05-12T04:59:52;101794.50;;;11.57;100.00
6565;BME280;3316;44.118;27.258;2023-05-12T05:02:18;101809.56;;;11.72;100.00
6565;BME280;3316;44.118;27.258;2023-05-12T05:04:43;101806.09;;;11.82;100.00
6565;BME280;3316;44.118;27.258;2023-05-12T05:07:09;101815.81;;;12.07;100.00
6565;BME280;3316;44.118;27.258;2023-05-12T05:09:34;101822.91;;;12.38;100.00
6565;BME280;3316;44.118;27.258;2023-05-12T05:11:59;101817.63;;;12.47;100.00
6565;BME280;3316;44.118;27.258;2023-05-12T05:14:25;101819.41;;;12.69;100.00
6565;BME280;3316;44.118;27.258;2023-05-12T05:16:51;101819.38;;;12.93;100.00
6565;BME280;3316;44.118;27.258;2023-05-12T05:19:16;101838.75;;;13.27;100.00
6565;BME280;3316;44.118;27.258;2023-05-12T05:21:42;101843.06;;;13.52;100.00
6565;BME280;3316;44.118;27.258;2023-05-12T05:24:07;101842.09;;;13.82;100.00
6565;BME280;3316;44.118;27.258;2023-05-12T05:26:33;101850.75;;;14.14;100.00
6565;BME280;3316;44.118;27.258;2023-05-12T05:28:59;101850.75;;;14.12;100.00
6565;BME280;3316;44.118;27.258;2023-05-12T05:31:24;101856.94;;;14.07;100.00
6565;BME280;3316;44.118;27.258;2023-05-12T05:33:53;101850.88;;;13.90;100.00
6565;BME280;3316;44.118;27.258;2023-05-12T05:36:19;101865.84;;;13.94;100.00
6565;BME280;3316;44.118;27.258;2023-05-12T05:38:44;101853.47;;;13.99;100.00
6565;BME280;3316;44.118;27.258;2023-05-12T05:41:10;101856.94;;;14.07;100.00
6565;BME280;3316;44.118;27.258;2023-05-12T05:43:35;101863.88;;;14.34;100.00
6565;BME280;3316;44.118;27.258;2023-05-12T05:46:01;101878.69;;;14.66;100.00
6565;BME280;3316;44.118;27.258;2023-05-12T05:48:26;101875.09;;;14.73;100.00
6565;BME280;3316;44.118;27.258;2023-05-12T05:50:52;101872.38;;;14.82;100.00
6565;BME280;3316;44.118;27.258;2023-05-12T05:53:19;101868.63;;;15.09;100.00
6565;BME280;3316;44.118;27.258;2023-05-12T05:55:45;101874.66;;;15.25;100.00
6565;BME280;3316;44.118;27.258;2023-05-12T05:58:12;101870.28;;;15.21;100.00
6565;BME280;3316;44.118;27.258;2023-05-12T06:00:39;101874.53;;;15.37;100.00
6565;BME280;3316;44.118;27.258;2023-05-12T06:03:05;101870.13;;;15.34;100.00
6565;BME280;3316;44.118;27.258;2023-05-12T06:05:30;101868.31;;;15.42;100.00
6565;BME280;3316;44.118;27.258;2023-05-12T06:07:55;101867.19;;;15.66;100.00
6565;BME280;3316;44.118;27.258;2023-05-12T06:10:21;101881.72;;;16.04;100.00
6565;BME280;3316;44.118;27.258;2023-05-12T06:12:46;101884.44;;;16.00;100.00
6565;BME280;3316;44.118;27.258;2023-05-12T06:15:12;101887.41;;;15.73;100.00
6565;BME280;3316;44.118;27.258;2023-05-12T06:17:37;101888.16;;;15.87;100.00
6565;BME280;3316;44.118;27.258;2023-05-12T06:20:04;101870.66;;;16.38;100.00
6565;BME280;3316;44.118;27.258;2023-05-12T06:22:30;101881.31;;;16.35;100.00
6565;BME280;3316;44.118;27.258;2023-05-12T06:24:56;101887.44;;;16.40;100.00
6565;BME280;3316;44.118;27.258;2023-05-12T06:27:21;101874.75;;;16.61;100.00
6565;BME280;3316;44.118;27.258;2023-05-12T06:29:47;101875.44;;;16.74;100.00
6565;BME280;3316;44.118;27.258;2023-05-12T06:32:13;101883.28;;;16.83;100.00
6565;BME280;3316;44.118;27.258;2023-05-12T06:34:38;101874.72;;;17.16;100.00
6565;BME280;3316;44.118;27.258;2023-05-12T06:37:04;101883.91;;;17.49;100.00
6565;BME280;3316;44.118;27.258;2023-05-12T06:39:30;101892.56;;;17.60;100.00
6565;BME280;3316;44.118;27.258;2023-05-12T06:41:55;101887.03;;;17.70;99.71
6565;BME280;3316;44.118;27.258;2023-05-12T06:44:21;101897.03;;;18.02;97.79
6565;BME280;3316;44.118;27.258;2023-05-12T06:46:46;101891.72;;;18.01;98.37
6565;BME280;3316;44.118;27.258;2023-05-12T06:49:12;101891.34;;;18.19;95.10
6565;BME280;3316;44.118;27.258;2023-05-12T06:51:38;101888.63;;;17.79;99.07
6565;BME280;3316;44.118;27.258;2023-05-12T06:54:03;101896.72;;;17.73;98.92
6565;BME280;3316;44.118;27.258;2023-05-12T06:56:29;101886.06;;;17.73;98.86
6565;BME280;3316;44.118;27.258;2023-05-12T06:58:55;101901.97;;;17.77;99.91
6565;BME280;3316;44.118;27.258;2023-05-12T07:01:26;101898.66;;;17.66;100.00
6565;BME280;3316;44.118;27.258;2023-05-12T07:03:52;101900.88;;;17.88;100.00
6565;BME280;3316;44.118;27.258;2023-05-12T07:06:17;101897.59;;;18.18;97.15
6565;BME280;3316;44.118;27.258;2023-05-12T07:08:42;101908.06;;;18.25;96.21
6565;BME280;3316;44.118;27.258;2023-05-12T07:11:08;101850.78;;;18.05;95.37
6565;BME280;3316;44.118;27.258;2023-05-12T07:13:33;101901.28;;;18.52;93.66
6565;BME280;3316;44.118;27.258;2023-05-12T07:15:59;101867.91;;;18.34;92.48
6565;BME280;3316;44.118;27.258;2023-05-12T07:18:24;101900.03;;;18.68;91.38
6565;BME280;3316;44.118;27.258;2023-05-12T07:20:50;101900.72;;;18.76;89.56
6565;BME280;3316;44.118;27.258;2023-05-12T07:23:15;101888.59;;;18.23;94.60
6565;BME280;3316;44.118;27.258;2023-05-12T07:25:41;101896.00;;;18.09;95.77
6565;BME280;3316;44.118;27.258;2023-05-12T07:28:06;101895.28;;;18.41;96.44
6565;BME280;3316;44.118;27.258;2023-05-12T07:30:32;101892.72;;;18.75;93.63
6565;BME280;3316;44.118;27.258;2023-05-12T07:32:57;101889.53;;;18.60;91.20
6565;BME280;3316;44.118;27.258;2023-05-12T07:35:23;101894.84;;;18.62;93.52
6565;BME280;3316;44.118;27.258;2023-05-12T07:37:48;101909.19;;;18.56;91.27
6565;BME280;3316;44.118;27.258;2023-05-12T07:40:14;101896.72;;;18.57;88.22
6565;BME280;3316;44.118;27.258;2023-05-12T07:42:39;101894.69;;;18.68;85.46
6565;BME280;3316;44.118;27.258;2023-05-12T07:45:05;101895.06;;;18.88;80.46
6565;BME280;3316;44.118;27.258;2023-05-12T07:47:31;101897.41;;;18.65;82.64
6565;BME280;3316;44.118;27.258;2023-05-12T07:49:56;101912.19;;;18.80;81.60
6565;BME280;3316;44.118;27.258;2023-05-12T07:52:22;101910.53;;;19.11;81.54
6565;BME280;3316;44.118;27.258;2023-05-12T07:54:48;101899.94;;;19.06;77.95
6565;BME280;3316;44.118;27.258;2023-05-12T07:57:13;101903.56;;;19.04;76.53
6565;BME280;3316;44.118;27.258;2023-05-12T07:59:39;101894.22;;;18.86;67.53
6565;BME280;3316;44.118;27.258;2023-05-12T08:02:05;101888.78;;;18.91;66.16
6565;BME280;3316;44.118;27.258;2023-05-12T08:04:31;101894.38;;;18.42;69.52
6565;BME280;3316;44.118;27.258;2023-05-12T08:06:56;101901.47;;;18.41;71.47
6565;BME280;3316;44.118;27.258;2023-05-12T08:09:22;101894.47;;;18.37;75.17
6565;BME280;3316;44.118;27.258;2023-05-12T08:11:47;101910.44;;;18.37;69.61
6565;BME280;3316;44.118;27.258;2023-05-12T08:14:14;101901.34;;;18.08;67.03
6565;BME280;3316;44.118;27.258;2023-05-12T08:16:40;101898.69;;;18.06;69.65
6565;BME280;3316;44.118;27.258;2023-05-12T08:19:06;101899.25;;;17.79;70.68
6565;BME280;3316;44.118;27.258;2023-05-12T08:21:32;101908.09;;;17.81;67.98
6565;BME280;3316;44.118;27.258;2023-05-12T08:23:57;101904.69;;;17.74;68.38
6565;BME280;3316;44.118;27.258;2023-05-12T08:26:23;101903.94;;;17.68;63.29
6565;BME280;3316;44.118;27.258;2023-05-12T08:28:49;101903.47;;;17.91;62.38
6565;BME280;3316;44.118;27.258;2023-05-12T08:31:14;101902.03;;;17.73;63.99
6565;BME280;3316;44.118;27.258;2023-05-12T08:33:40;101905.19;;;17.93;62.81
6565;BME280;3316;44.118;27.258;2023-05-12T08:36:06;101904.28;;;17.51;61.43
6565;BME280;3316;44.118;27.258;2023-05-12T08:38:31;101902.03;;;17.73;62.32
6565;BME280;3316;44.118;27.258;2023-05-12T08:41:19;101906.72;;;17.62;62.13
6565;BME280;3316;44.118;27.258;2023-05-12T08:43:51;101896.91;;;17.64;60.76
6565;BME280;3316;44.118;27.258;2023-05-12T08:46:17;101902.16;;;17.68;61.43
6565;BME280;3316;44.118;27.258;2023-05-12T08:48:44;101890.69;;;17.63;62.80
6565;BME280;3316;44.118;27.258;2023-05-12T08:51:12;101905.19;;;17.46;62.59
6565;BME280;3316;44.118;27.258;2023-05-12T08:53:39;101900.06;;;17.37;63.20
6565;BME280;3316;44.118;27.258;2023-05-12T08:56:06;101897.22;;;17.46;63.11
6565;BME280;3316;44.118;27.258;2023-05-12T08:58:33;101896.75;;;17.71;63.15
6565;BME280;3316;44.118;27.258;2023-05-12T09:00:59;101894.50;;;17.96;62.91
6565;BME280;3316;44.118;27.258;2023-05-12T09:03:26;101894.94;;;17.73;62.67
6565;BME280;3316;44.118;27.258;2023-05-12T09:05:54;101903.22;;;17.58;64.02
6565;BME280;3316;44.118;27.258;2023-05-12T09:08:22;101893.84;;;17.38;65.39
6565;BME280;3316;44.118;27.258;2023-05-12T09:10:48;101895.50;;;17.42;66.00
6565;BME280;3316;44.118;27.258;2023-05-12T09:13:33;101897.94;;;17.55;63.86
6565;BME280;3316;44.118;27.258;2023-05-12T09:16:03;101887.41;;;17.51;65.86
6565;BME280;3316;44.118;27.258;2023-05-12T09:18:47;101891.84;;;17.50;66.58
6565;BME280;3316;44.118;27.258;2023-05-12T09:21:14;101882.09;;;17.48;63.86
6565;BME280;3316;44.118;27.258;2023-05-12T09:23:39;101888.38;;;17.45;64.79
6565;BME280;3316;44.118;27.258;2023-05-12T09:26:05;101881.28;;;17.44;65.66
6565;BME280;3316;44.118;27.258;2023-05-12T09:28:37;101882.16;;;17.92;64.27
6565;BME280;3316;44.118;27.258;2023-05-12T09:31:16;101887.06;;;18.12;62.58
6565;BME280;3316;44.118;27.258;2023-05-12T09:33:41;101876.16;;;17.81;62.70
6565;BME280;3316;44.118;27.258;2023-05-12T09:36:07;101889.38;;;17.86;63.77
6565;BME280;3316;44.118;27.258;2023-05-12T09:38:32;101883.72;;;18.01;63.39
6565;BME280;3316;44.118;27.258;2023-05-12T09:40:58;101879.41;;;17.95;62.12
6565;BME280;3316;44.118;27.258;2023-05-12T09:43:23;101879.97;;;18.11;61.18
6565;BME280;3316;44.118;27.258;2023-05-12T09:45:49;101882.41;;;18.21;60.78
6565;BME280;3316;44.118;27.258;2023-05-12T09:48:14;101886.50;;;17.96;60.23
6565;BME280;3316;44.118;27.258;2023-05-12T09:50:48;101881.88;;;18.04;59.44
6565;BME280;3316;44.118;27.258;2023-05-12T09:53:14;101869.72;;;17.91;57.49
6565;BME280;3316;44.118;27.258;2023-05-12T09:55:45;101880.66;;;17.77;58.69
6565;BME280;3316;44.118;27.258;2023-05-12T09:58:14;101796.13;;;17.44;58.92
6565;BME280;3316;44.118;27.258;2023-05-12T10:00:40;101884.69;;;17.98;59.70
6565;BME280;3316;44.118;27.258;2023-05-12T10:03:12;101882.72;;;18.06;57.87
6565;BME280;3316;44.118;27.258;2023-05-12T10:05:45;101888.88;;;18.08;56.32
6565;BME280;3316;44.118;27.258;2023-05-12T10:08:16;101878.28;;;18.07;56.21
6565;BME280;3316;44.118;27.258;2023-05-12T10:10:44;101866.25;;;18.29;56.28
6565;BME280;3316;44.118;27.258;2023-05-12T10:13:13;101877.09;;;18.59;55.80
6565;BME280;3316;44.118;27.258;2023-05-12T10:15:39;101864.94;;;18.48;54.91
6565;BME280;3316;44.118;27.258;2023-05-12T10:18:06;101868.25;;;18.19;55.37
6565;BME280;3316;44.118;27.258;2023-05-12T10:20:32;101888.59;;;18.22;56.02
6565;BME280;3316;44.118;27.258;2023-05-12T10:22:59;101874.28;;;18.27;53.59
6565;BME280;3316;44.118;27.258;2023-05-12T10:25:27;101861.59;;;18.38;54.31
6565;BME280;3316;44.118;27.258;2023-05-12T10:27:54;101860.97;;;18.27;54.32
6565;BME280;3316;44.118;27.258;2023-05-12T10:30:21;101873.31;;;18.31;54.64
6565;BME280;3316;44.118;27.258;2023-05-12T10:32:46;101860.06;;;18.27;53.17
6565;BME280;3316;44.118;27.258;2023-05-12T10:35:12;101853.03;;;18.24;53.55
6565;BME280;3316;44.118;27.258;2023-05-12T10:37:40;101863.38;;;18.38;53.75
6565;BME280;3316;44.118;27.258;2023-05-12T10:40:06;101856.34;;;18.34;54.20
6565;BME280;3316;44.118;27.258;2023-05-12T10:42:41;101862.00;;;18.60;53.57
6565;BME280;3316;44.118;27.258;2023-05-12T10:45:18;101856.44;;;18.31;52.31
6565;BME280;3316;44.118;27.258;2023-05-12T10:47:45;101853.38;;;18.49;52.38
6565;BME280;3316;44.118;27.258;2023-05-12T10:50:11;101855.88;;;18.56;52.49
6565;BME280;3316;44.118;27.258;2023-05-12T10:53:01;101837.13;;;18.20;52.66
6565;BME280;3316;44.118;27.258;2023-05-12T10:55:33;101837.81;;;18.29;52.61
6565;BME280;3316;44.118;27.258;2023-05-12T10:58:08;101832.03;;;18.50;51.21
6565;BME280;3316;44.118;27.258;2023-05-12T11:00:48;101846.34;;;18.46;50.04
6565;BME280;3316;44.118;27.258;2023-05-12T11:03:16;101839.78;;;18.59;50.83
6565;BME280;3316;44.118;27.258;2023-05-12T11:05:43;101857.13;;;18.77;48.68
6565;BME280;3316;44.118;27.258;2023-05-12T11:08:10;101843.66;;;18.83;47.70
6565;BME280;3316;44.118;27.258;2023-05-12T11:10:35;101839.31;;;18.79;46.33
6565;BME280;3316;44.118;27.258;2023-05-12T11:13:05;101834.75;;;18.83;46.85
6565;BME280;3316;44.118;27.258;2023-05-12T11:15:30;101802.06;;;18.76;47.28
6565;BME280;3316;44.118;27.258;2023-05-12T11:17:56;101852.03;;;19.03;47.29
6565;BME280;3316;44.118;27.258;2023-05-12T11:20:25;101851.41;;;19.26;48.09
6565;BME280;3316;44.118;27.258;2023-05-12T11:22:51;101830.94;;;19.26;46.34
6565;BME280;3316;44.118;27.258;2023-05-12T11:25:17;101847.75;;;18.96;45.17
6565;BME280;3316;44.118;27.258;2023-05-12T11:27:49;101849.41;;;18.65;44.00
6565;BME280;3316;44.118;27.258;2023-05-12T11:30:15;101850.72;;;18.47;44.42
6565;BME280;3316;44.118;27.258;2023-05-12T11:32:41;101833.06;;;18.42;44.75
6565;BME280;3316;44.118;27.258;2023-05-12T11:35:17;101839.56;;;18.68;44.55
6565;BME280;3316;44.118;27.258;2023-05-12T11:37:44;101837.84;;;18.66;44.54
6565;BME280;3316;44.118;27.258;2023-05-12T11:40:20;101853.72;;;18.72;43.36
6565;BME280;3316;44.118;27.258;2023-05-12T11:42:49;101827.72;;;18.45;43.42
6565;BME280;3316;44.118;27.258;2023-05-12T11:45:24;101838.28;;;18.48;43.38
6565;BME280;3316;44.118;27.258;2023-05-12T11:47:51;101846.16;;;18.54;43.56
6565;BME280;3316;44.118;27.258;2023-05-12T11:50:23;101848.84;;;18.52;43.65
6565;BME280;3316;44.118;27.258;2023-05-12T11:52:50;101842.91;;;18.78;43.63
6565;BME280;3316;44.118;27.258;2023-05-12T11:55:21;101845.38;;;18.84;43.80
6565;BME280;3316;44.118;27.258;2023-05-12T11:57:55;101847.19;;;18.84;42.95
6565;BME280;3316;44.118;27.258;2023-05-12T12:00:40;101838.19;;;18.52;43.13
6565;BME280;3316;44.118;27.258;2023-05-12T12:03:11;101840.16;;;18.44;43.92
6565;BME280;3316;44.118;27.258;2023-05-12T12:05:38;101837.31;;;18.52;44.08
6565;BME280;3316;44.118;27.258;2023-05-12T12:08:14;101830.19;;;18.52;44.58
6565;BME280;3316;44.118;27.258;2023-05-12T12:10:46;101839.03;;;18.53;44.38
6565;BME280;3316;44.118;27.258;2023-05-12T12:13:18;101807.19;;;18.09;45.56
6565;BME280;3316;44.118;27.258;2023-05-12T12:15:43;101809.81;;;18.10;46.09
6565;BME280;3316;44.118;27.258;2023-05-12T12:18:08;101815.41;;;18.00;45.04
6565;BME280;3316;44.118;27.258;2023-05-12T12:20:34;101837.53;;;18.03;45.36
6565;BME280;3316;44.118;27.258;2023-05-12T12:22:59;101823.97;;;18.12;44.86
6565;BME280;3316;44.118;27.258;2023-05-12T12:25:25;101824.59;;;18.25;44.95
6565;BME280;3316;44.118;27.258;2023-05-12T12:27:50;101827.00;;;18.35;44.34
6565;BME280;3316;44.118;27.258;2023-05-12T12:30:17;101828.00;;;18.31;43.84
6565;BME280;3316;44.118;27.258;2023-05-12T12:32:43;101815.91;;;18.17;43.92
6565;BME280;3316;44.118;27.258;2023-05-12T12:35:10;101826.72;;;18.09;44.49
6565;BME280;3316;44.118;27.258;2023-05-12T12:37:36;101820.44;;;18.13;43.70
6565;BME280;3316;44.118;27.258;2023-05-12T12:40:02;101770.50;;;17.83;43.05
6565;BME280;3316;44.118;27.258;2023-05-12T12:42:33;101822.22;;;18.13;42.73
6565;BME280;3316;44.118;27.258;2023-05-12T12:45:00;101811.59;;;18.11;42.39
6565;BME280;3316;44.118;27.258;2023-05-12T12:47:25;101812.88;;;18.33;42.64
6565;BME280;3316;44.118;27.258;2023-05-12T12:49:51;101817.53;;;18.62;41.10
6565;BME280;3316;44.118;27.258;2023-05-12T12:52:16;101817.31;;;18.70;41.28
6565;BME280;3316;44.118;27.258;2023-05-12T12:54:42;101815.06;;;18.53;41.21